Time;durP1;ratioP1;P1;durP2;ratioP2;P2;SDS_P1;SDS_P2;PMS_P1;PMS_P2;Temp;Humidity;BMP_temperature;BMP_pressure;BME280_temperature;BME280_humidity;BME280_pressure;Samples;Min_cycle;Max_cycle;Signal;HPM_P1;HPM_P2
2022/12/15 00:39:42;;;;;;;4.60;3.57;;;0.70;98.00;;;;;;4974909;28;20498;-67
2022/12/15 00:42:11;;;;;;;7.63;3.63;;;0.70;98.00;;;;;;4974748;28;20473;-67
2022/12/15 00:44:38;;;;;;;4.60;3.00;;;0.60;98.00;;;;;;4974839;28;20503;-67
2022/12/15 00:47:08;;;;;;;9.03;5.03;;;0.70;98.00;;;;;;4975125;28;20862;-67
2022/12/15 01:22:38;;;;;;;4.73;2.80;;;0.30;98.00;;;;;;4974679;28;20445;-67
2022/12/15 01:25:06;;;;;;;7.20;4.17;;;0.20;98.00;;;;;;4974449;28;20463;-67
2022/12/15 01:27:34;;;;;;;4.03;2.90;;;0.30;98.00;;;;;;4974271;28;20469;-67
2022/12/15 01:30:02;;;;;;;4.40;3.30;;;0.30;98.00;;;;;;4974568;28;20464;-67
2022/12/15 01:32:31;;;;;;;4.20;3.27;;;0.40;98.00;;;;;;4974202;28;20863;-67
2022/12/15 01:34:58;;;;;;;6.10;3.43;;;0.30;98.00;;;;;;4974466;28;20488;-68
2022/12/15 01:37:25;;;;;;;5.57;3.97;;;0.30;98.00;;;;;;4974213;28;20496;-67
2022/12/15 01:42:36;;;;;;;5.63;3.03;;;0.30;98.00;;;;;;4974229;28;20451;-67
2022/12/15 01:45:47;;;;;;;10.43;4.93;;;0.30;98.00;;;;;;4973569;28;21199;-67
2022/12/15 01:48:19;;;;;;;6.13;3.47;;;0.30;98.00;;;;;;4956976;28;20474;-68
2022/12/15 01:50:53;;;;;;;5.63;4.07;;;0.20;98.00;;;;;;4973345;28;21112;-68
2022/12/15 01:53:20;;;;;;;9.00;3.43;;;0.30;98.00;;;;;;4973194;28;20467;-67
2022/12/15 01:55:48;;;;;;;7.07;4.47;;;0.30;98.00;;;;;;4955785;28;21002;-67
2022/12/15 01:58:18;;;;;;;8.30;3.70;;;0.40;98.00;;;;;;4973109;28;20995;-67
2022/12/15 02:00:54;;;;;;;7.53;4.13;;;0.40;98.00;;;;;;4973138;28;20472;-67
2022/12/15 02:03:23;;;;;;;4.53;3.50;;;0.30;98.00;;;;;;4973189;28;20456;-67
2022/12/15 02:05:50;;;;;;;12.00;6.03;;;0.20;98.00;;;;;;4973173;28;20540;-68
2022/12/15 02:08:17;;;;;;;10.30;4.63;;;0.30;98.00;;;;;;4972809;28;20465;-67
2022/12/15 02:10:59;;;;;;;6.40;3.43;;;0.30;98.00;;;;;;4972823;28;20955;-67
2022/12/15 02:13:34;;;;;;;10.77;4.83;;;0.30;98.00;;;;;;4972705;28;20457;-67
2022/12/15 02:16:12;;;;;;;3.10;2.67;;;0.30;98.00;;;;;;4972458;28;21031;-67
2022/12/15 02:18:52;;;;;;;5.97;3.60;;;0.20;98.00;;;;;;4972507;28;20516;-67
2022/12/15 02:21:24;;;;;;;4.13;2.87;;;0.20;98.00;;;;;;4972546;28;20526;-67
2022/12/15 02:24:33;;;;;;;6.20;3.20;;;0.30;98.00;;;;;;4972584;28;20463;-67
2022/12/15 02:27:43;;;;;;;3.63;2.30;;;0.30;98.00;;;;;;4966761;28;20459;-67
2022/12/15 02:30:30;;;;;;;7.03;3.93;;;0.30;98.00;;;;;;4962131;28;20469;-67
2022/12/15 02:33:06;;;;;;;5.67;3.67;;;0.20;98.00;;;;;;4972621;28;20471;-68
2022/12/15 02:35:48;;;;;;;4.60;3.97;;;0.20;98.00;;;;;;4972377;28;20499;-67
2022/12/15 02:38:15;;;;;;;7.90;3.60;;;0.10;98.00;;;;;;4955299;28;20457;-67
2022/12/15 02:40:42;;;;;;;4.13;2.70;;;0.10;98.00;;;;;;4972308;28;20472;-67
2022/12/15 02:43:11;;;;;;;4.47;3.53;;;0.20;98.00;;;;;;4955416;28;20457;-67
2022/12/15 02:45:52;;;;;;;4.70;3.27;;;0.30;98.00;;;;;;4933365;28;1150983;-67
2022/12/15 02:48:28;;;;;;;16.23;3.40;;;0.40;98.00;;;;;;4973072;28;20326;-67
2022/12/15 02:51:11;;;;;;;7.43;4.50;;;0.60;98.00;;;;;;4973101;28;20508;-67
2022/12/15 02:54:20;;;;;;;6.30;4.60;;;0.50;98.00;;;;;;4973097;28;20464;-67
2022/12/15 02:57:04;;;;;;;9.47;5.07;;;0.60;98.00;;;;;;4962811;28;20500;-68
2022/12/15 02:59:38;;;;;;;5.97;3.50;;;0.60;98.00;;;;;;4956529;28;20464;-67
2022/12/15 03:02:09;;;;;;;3.03;2.83;;;0.30;98.00;;;;;;4972943;28;20472;-67
2022/12/15 03:04:38;;;;;;;5.83;3.63;;;0.20;98.00;;;;;;4973006;28;20456;-67
2022/12/15 03:07:08;;;;;;;7.87;3.10;;;0.20;98.00;;;;;;4972839;28;20466;-67
2022/12/15 03:09:36;;;;;;;15.10;3.97;;;0.20;98.00;;;;;;4972824;28;20471;-67
2022/12/15 03:12:03;;;;;;;3.20;2.80;;;0.20;98.00;;;;;;4972857;28;20518;-67
2022/12/15 03:14:30;;;;;;;6.80;3.50;;;0.10;98.00;;;;;;4972822;28;20464;-68
2022/12/15 03:16:57;;;;;;;3.60;3.13;;;0.20;98.00;;;;;;4972819;28;20489;-67
2022/12/15 03:19:25;;;;;;;4.23;3.43;;;0.20;98.00;;;;;;4972794;28;20469;-68
2022/12/15 03:21:53;;;;;;;7.50;4.20;;;0.10;98.00;;;;;;4972701;28;20491;-67
2022/12/15 03:24:20;;;;;;;4.03;3.10;;;0.30;98.00;;;;;;4972642;28;20514;-67
2022/12/15 03:26:48;;;;;;;4.87;2.73;;;0.20;98.00;;;;;;4972637;28;20463;-68
2022/12/15 03:29:16;;;;;;;5.33;3.50;;;0.00;98.00;;;;;;4973512;28;20963;-68
2022/12/15 03:31:44;;;;;;;4.37;2.17;;;-0.10;98.00;;;;;;4976533;28;20460;-67
2022/12/15 03:34:11;;;;;;;6.10;2.60;;;-0.10;98.00;;;;;;4976511;28;20516;-67
2022/12/15 03:36:41;;;;;;;8.37;4.40;;;-0.30;98.00;;;;;;4976196;28;20542;-68
2022/12/15 03:39:08;;;;;;;3.40;3.10;;;-0.30;98.00;;;;;;4976212;28;21041;-67
2022/12/15 03:41:35;;;;;;;6.37;3.53;;;-0.30;98.00;;;;;;4976254;28;20523;-67
2022/12/15 03:44:04;;;;;;;5.93;4.70;;;-0.30;98.00;;;;;;4975861;28;20476;-67
2022/12/15 03:46:31;;;;;;;5.67;3.30;;;-0.20;98.00;;;;;;4975632;28;20460;-68
2022/12/15 03:48:58;;;;;;;4.17;3.27;;;-0.10;98.00;;;;;;4975720;28;20465;-67
2022/12/15 03:51:25;;;;;;;3.37;3.23;;;0.00;98.00;;;;;;4975671;28;20472;-67
2022/12/15 03:53:57;;;;;;;6.33;3.60;;;0.10;98.00;;;;;;4975783;28;20978;-67
2022/12/15 03:56:24;;;;;;;5.03;2.80;;;0.20;98.00;;;;;;4975359;28;20494;-67
2022/12/15 03:58:52;;;;;;;4.40;3.17;;;0.20;98.00;;;;;;4975633;28;20456;-67
2022/12/15 04:01:26;;;;;;;6.90;3.67;;;0.20;98.00;;;;;;4975418;28;20959;-67
2022/12/15 04:03:53;;;;;;;7.30;3.40;;;0.30;98.00;;;;;;4975247;28;21025;-67
2022/12/15 04:06:20;;;;;;;4.57;2.70;;;0.30;98.00;;;;;;4975213;28;20464;-67
2022/12/15 04:08:48;;;;;;;5.00;3.83;;;0.30;98.00;;;;;;4975199;28;20464;-68
2022/12/15 04:11:16;;;;;;;3.03;2.47;;;0.40;98.00;;;;;;4958087;28;20673;-67
2022/12/15 04:13:43;;;;;;;4.20;3.33;;;0.40;98.00;;;;;;4975058;28;20982;-68
2022/12/15 04:16:10;;;;;;;7.73;3.90;;;0.40;98.00;;;;;;4974954;28;20495;-67
2022/12/15 04:18:38;;;;;;;6.13;3.87;;;0.40;98.00;;;;;;4974980;28;20460;-67
2022/12/15 04:21:04;;;;;;;6.80;4.43;;;0.30;98.00;;;;;;4974924;28;20995;-67
2022/12/15 04:23:31;;;;;;;3.70;3.00;;;0.30;98.00;;;;;;4974843;28;20476;-67
2022/12/15 05:35:01;;;;;;;7.73;4.70;;;0.20;98.00;;;;;;4973700;28;20460;-67
2022/12/15 05:37:28;;;;;;;6.27;3.33;;;0.00;98.00;;;;;;4973788;28;20532;-68
2022/12/15 05:39:55;;;;;;;3.73;2.50;;;0.00;98.00;;;;;;4974171;28;20460;-67
2022/12/15 05:42:22;;;;;;;4.07;3.07;;;-0.10;98.00;;;;;;4974134;28;20500;-68
2022/12/15 05:44:49;;;;;;;3.60;3.40;;;0.00;98.00;;;;;;4973920;28;20531;-67
2022/12/15 05:47:16;;;;;;;3.40;2.53;;;0.00;98.00;;;;;;4974044;28;20468;-67
2022/12/15 05:49:43;;;;;;;5.73;3.20;;;-0.10;98.00;;;;;;4973906;28;20958;-68
2022/12/15 05:52:11;;;;;;;2.77;2.57;;;-0.20;98.00;;;;;;4973503;28;20460;-68
2022/12/15 05:54:38;;;;;;;6.50;4.40;;;-0.20;98.00;;;;;;4973846;28;20530;-67
2022/12/15 05:57:05;;;;;;;9.60;4.50;;;-0.10;98.00;;;;;;4973751;28;20492;-67
2022/12/15 05:59:33;;;;;;;3.33;2.40;;;-0.20;98.00;;;;;;4973833;28;20455;-68
2022/12/15 06:02:00;;;;;;;3.30;2.20;;;-0.20;98.00;;;;;;4973668;28;20457;-67
2022/12/15 06:04:27;;;;;;;3.53;2.53;;;-0.20;98.00;;;;;;4973677;28;20819;-68
2022/12/15 06:06:54;;;;;;;7.53;3.20;;;-0.10;98.00;;;;;;4973619;28;20460;-67
2022/12/15 06:09:22;;;;;;;3.23;2.70;;;-0.20;98.00;;;;;;4973892;28;20461;-67
2022/12/15 06:11:49;;;;;;;4.03;3.20;;;-0.10;98.00;;;;;;4973627;28;20523;-67
2022/12/15 06:14:17;;;;;;;5.53;3.93;;;0.00;98.00;;;;;;4973766;28;20468;-67
2022/12/15 06:16:44;;;;;;;3.63;3.50;;;0.00;98.00;;;;;;4972465;28;20913;-67
2022/12/15 06:19:11;;;;;;;7.00;2.50;;;0.20;98.00;;;;;;4973694;28;20511;-67
2022/12/15 06:21:38;;;;;;;4.27;2.77;;;0.10;98.00;;;;;;4973648;28;20531;-67
2022/12/15 06:24:07;;;;;;;4.10;2.30;;;0.20;98.00;;;;;;4973623;28;20959;-67
2022/12/15 06:26:37;;;;;;;4.10;3.17;;;0.10;98.00;;;;;;4972341;28;20472;-67
2022/12/15 06:29:08;;;;;;;2.67;2.47;;;0.10;98.00;;;;;;4973875;28;20460;-67
2022/12/15 06:31:35;;;;;;;3.73;3.50;;;0.10;98.00;;;;;;4973582;28;20496;-67
2022/12/15 06:34:04;;;;;;;6.97;4.20;;;0.10;98.00;;;;;;4973426;28;20472;-67
2022/12/15 06:36:31;;;;;;;8.53;4.10;;;0.10;98.00;;;;;;4973252;28;20895;-67
2022/12/15 06:38:59;;;;;;;6.77;3.00;;;0.00;98.00;;;;;;4973215;28;20456;-67
2022/12/15 06:41:26;;;;;;;12.80;3.73;;;0.00;98.00;;;;;;4973198;28;20507;-68
2022/12/15 06:43:55;;;;;;;7.43;3.03;;;0.00;98.00;;;;;;4972950;28;20849;-67
2022/12/15 06:46:23;;;;;;;7.03;3.57;;;0.00;98.00;;;;;;4973202;28;20461;-67
2022/12/15 06:48:52;;;;;;;6.10;4.00;;;0.00;98.00;;;;;;4972991;28;20471;-67
2022/12/15 06:51:19;;;;;;;5.20;3.20;;;-0.10;98.00;;;;;;4972932;28;20460;-67
2022/12/15 06:53:47;;;;;;;7.13;3.40;;;-0.20;98.00;;;;;;4973113;28;20466;-67
2022/12/15 06:56:18;;;;;;;4.80;2.60;;;-0.10;98.00;;;;;;4972884;28;20486;-67
2022/12/15 06:58:48;;;;;;;5.30;3.70;;;-0.10;98.00;;;;;;4972949;28;20551;-67
2022/12/15 07:01:17;;;;;;;3.63;3.47;;;-0.10;98.00;;;;;;4972846;28;20552;-68
2022/12/15 07:03:45;;;;;;;5.23;3.13;;;0.00;98.00;;;;;;4972974;28;20465;-67
2022/12/15 07:06:15;;;;;;;4.30;2.90;;;0.00;98.00;;;;;;4975634;28;20456;-67
2022/12/15 07:08:42;;;;;;;3.50;3.30;;;0.00;98.00;;;;;;4977052;28;20459;-68
2022/12/15 07:11:12;;;;;;;12.73;4.83;;;0.00;98.00;;;;;;4977006;28;20468;-68
2022/12/15 07:13:40;;;;;;;6.30;4.17;;;-0.10;98.00;;;;;;4976910;28;20470;-67
2022/12/15 07:16:09;;;;;;;6.50;3.77;;;0.00;98.00;;;;;;4976715;28;20491;-68
2022/12/15 07:18:37;;;;;;;4.00;3.50;;;-0.10;98.00;;;;;;4976713;28;20461;-68
2022/12/15 07:21:07;;;;;;;8.10;2.70;;;-0.20;98.00;;;;;;4976448;28;20469;-67
2022/12/15 07:23:35;;;;;;;4.43;3.03;;;-0.10;98.00;;;;;;4976626;28;20872;-68
2022/12/15 07:26:05;;;;;;;6.53;3.73;;;0.00;98.00;;;;;;4976746;28;20464;-68
2022/12/15 07:28:32;;;;;;;3.27;2.70;;;0.10;98.00;;;;;;4976541;28;20635;-67
2022/12/15 07:31:02;;;;;;;3.30;2.60;;;0.10;98.00;;;;;;4976595;28;20455;-68
2022/12/15 07:33:32;;;;;;;6.10;3.30;;;0.00;98.00;;;;;;4976418;28;20464;-68
2022/12/15 07:36:00;;;;;;;3.33;2.70;;;0.10;98.00;;;;;;4976410;28;20821;-68
2022/12/15 07:38:28;;;;;;;6.20;4.80;;;0.00;98.00;;;;;;4976242;28;20958;-63
2022/12/15 07:40:55;;;;;;;4.73;2.60;;;0.00;98.00;;;;;;4975822;28;20468;-64
2022/12/15 07:43:22;;;;;;;5.67;4.07;;;0.10;98.00;;;;;;4975605;28;20464;-64
2022/12/15 07:45:52;;;;;;;20.67;4.10;;;0.10;98.00;;;;;;4975509;28;20476;-64
2022/12/15 07:48:20;;;;;;;6.30;3.53;;;0.00;98.00;;;;;;4975207;28;20492;-65
2022/12/15 07:50:47;;;;;;;3.40;2.17;;;0.00;98.00;;;;;;4975042;28;20460;-64
2022/12/15 07:53:15;;;;;;;3.27;2.40;;;0.00;98.00;;;;;;4975088;28;20465;-64
2022/12/15 07:55:42;;;;;;;5.33;3.97;;;0.00;98.00;;;;;;4975498;28;20460;-64
2022/12/15 07:58:09;;;;;;;5.07;4.07;;;0.00;98.00;;;;;;4974008;28;20480;-64
2022/12/15 08:00:36;;;;;;;26.57;4.33;;;0.10;98.00;;;;;;4974199;28;20518;-65
2022/12/15 08:03:03;;;;;;;13.53;3.30;;;0.10;98.00;;;;;;4975311;28;20959;-64
2022/12/15 08:05:31;;;;;;;3.97;2.77;;;0.10;98.00;;;;;;4975222;28;20488;-63
2022/12/15 08:07:58;;;;;;;4.23;3.40;;;0.10;98.00;;;;;;4975247;28;20464;-65
2022/12/15 08:10:27;;;;;;;4.23;3.20;;;0.30;98.00;;;;;;4975223;28;20563;-64
2022/12/15 08:12:55;;;;;;;8.23;3.80;;;0.40;98.00;;;;;;4975232;28;20875;-63
2022/12/15 08:15:22;;;;;;;4.27;3.73;;;0.30;98.00;;;;;;4973739;28;20857;-63
2022/12/15 08:17:50;;;;;;;6.50;4.63;;;0.30;98.00;;;;;;4974982;28;20495;-64
2022/12/15 08:20:17;;;;;;;6.10;2.60;;;0.40;98.00;;;;;;4973949;28;20468;-64
2022/12/15 08:22:45;;;;;;;3.73;3.20;;;0.40;98.00;;;;;;4975219;28;20467;-64
2022/12/15 08:25:12;;;;;;;9.43;3.50;;;0.40;98.00;;;;;;4975176;28;20475;-64
2022/12/15 08:27:40;;;;;;;4.27;2.53;;;0.50;98.00;;;;;;4973600;28;20468;-63
2022/12/15 08:30:09;;;;;;;8.70;3.70;;;0.50;98.00;;;;;;4974916;28;20583;-64
2022/12/15 08:32:36;;;;;;;4.27;3.93;;;0.40;98.00;;;;;;4974549;28;20549;-63
2022/12/15 08:35:03;;;;;;;5.07;3.00;;;0.50;98.00;;;;;;4973666;28;20849;-63
2022/12/15 08:37:30;;;;;;;3.40;3.20;;;0.60;98.00;;;;;;4973395;28;20848;-63
2022/12/15 08:39:57;;;;;;;8.57;4.43;;;0.70;98.00;;;;;;4973489;28;21002;-64
2022/12/15 08:42:24;;;;;;;6.97;3.30;;;0.70;98.00;;;;;;4974419;28;20461;-63
2022/12/15 08:44:54;;;;;;;4.40;3.77;;;0.70;98.00;;;;;;4986490;28;20974;-64
2022/12/15 08:47:23;;;;;;;5.53;2.93;;;0.70;98.00;;;;;;4981026;28;20482;-64
2022/12/15 08:49:51;;;;;;;12.93;5.03;;;0.60;98.00;;;;;;4973297;28;20460;-65
2022/12/15 08:52:18;;;;;;;4.87;3.00;;;0.70;98.00;;;;;;4974910;28;20860;-64
2022/12/15 08:54:45;;;;;;;5.83;2.97;;;0.80;98.00;;;;;;4975120;28;20535;-65
2022/12/15 08:57:12;;;;;;;4.57;3.10;;;0.90;98.00;;;;;;4974699;28;20485;-65
2022/12/15 08:59:39;;;;;;;7.97;3.80;;;1.00;98.00;;;;;;4974713;28;20987;-65
2022/12/15 09:02:11;;;;;;;13.70;5.10;;;1.10;98.00;;;;;;4974876;28;20465;-64
2022/12/15 09:04:39;;;;;;;5.00;3.17;;;1.10;98.00;;;;;;4974919;28;20606;-66
2022/12/15 09:07:07;;;;;;;6.63;4.10;;;1.10;98.00;;;;;;4973772;28;20467;-66
2022/12/15 09:09:34;;;;;;;6.37;3.33;;;1.00;98.00;;;;;;4957333;28;20465;-66
2022/12/15 09:12:01;;;;;;;4.57;3.90;;;1.00;98.00;;;;;;4974687;28;20959;-66
2022/12/15 09:14:28;;;;;;;7.50;3.90;;;0.90;98.00;;;;;;4974439;28;20467;-66
2022/12/15 09:16:56;;;;;;;4.20;3.30;;;0.90;98.00;;;;;;4974702;28;20489;-66
2022/12/15 09:19:24;;;;;;;9.03;3.50;;;0.90;98.00;;;;;;4974869;28;20880;-66
2022/12/15 09:21:51;;;;;;;8.80;4.23;;;0.90;98.00;;;;;;4974318;28;20468;-66
2022/12/15 09:24:19;;;;;;;5.03;3.50;;;0.90;98.00;;;;;;4974398;28;20464;-67
2022/12/15 09:26:46;;;;;;;7.20;4.80;;;0.90;98.00;;;;;;4972066;28;20468;-67
2022/12/15 09:29:23;;;;;;;4.23;3.00;;;0.90;98.00;;;;;;4974311;28;20836;-67
2022/12/15 09:31:50;;;;;;;7.53;4.07;;;1.00;98.00;;;;;;4973976;28;20982;-66
2022/12/15 09:34:17;;;;;;;7.03;4.37;;;1.20;98.00;;;;;;4974109;28;20463;-66
2022/12/15 09:36:45;;;;;;;6.10;3.60;;;1.20;98.00;;;;;;4974144;28;20562;-66
2022/12/15 09:39:14;;;;;;;4.70;3.63;;;1.30;98.00;;;;;;4956923;28;20468;-66
2022/12/15 09:41:55;;;;;;;4.67;3.33;;;1.40;98.00;;;;;;4973857;28;20493;-67
2022/12/15 09:44:25;;;;;;;4.23;2.83;;;1.50;98.00;;;;;;4973350;28;20468;-62
2022/12/15 09:47:03;;;;;;;7.27;3.37;;;1.60;98.00;;;;;;4973997;28;20546;-61
2022/12/15 09:49:44;;;;;;;4.70;3.30;;;1.70;98.00;;;;;;4973966;28;20487;-62
2022/12/15 09:52:14;;;;;;;9.07;4.43;;;1.90;98.00;;;;;;4973862;28;20472;-65
2022/12/15 09:54:45;;;;;;;7.37;3.63;;;1.90;98.00;;;;;;5200013;22;20904;-63
2022/12/15 09:57:20;;;;;;;7.17;2.77;;;2.00;98.00;;;;;;4995047;28;21053;-67
2022/12/15 10:00:08;;;;;;;6.40;3.97;;;2.00;98.00;;;;;;5012356;28;20525;-62
2022/12/15 10:03:08;;;;;;;4.17;3.43;;;2.30;98.00;;;;;;5012877;28;20468;-62
2022/12/15 10:05:46;;;;;;;6.60;4.30;;;2.30;98.00;;;;;;5012870;28;20495;-64
2022/12/15 10:08:15;;;;;;;7.97;3.90;;;2.30;98.00;;;;;;5012727;28;20452;-64
2022/12/15 10:10:53;;;;;;;4.97;3.43;;;2.30;98.00;;;;;;5012938;28;20460;-63
2022/12/15 10:13:24;;;;;;;13.60;5.17;;;2.20;98.00;;;;;;5013059;28;20475;-63
2022/12/15 10:15:58;;;;;;;3.83;3.10;;;2.20;98.00;;;;;;5009807;28;20553;-64
2022/12/15 10:18:31;;;;;;;7.10;3.63;;;2.20;98.00;;;;;;4993946;28;21005;-64
2022/12/15 10:21:00;;;;;;;5.33;3.83;;;2.20;98.00;;;;;;5010729;28;20463;-64
2022/12/15 10:23:29;;;;;;;6.33;3.33;;;2.00;98.00;;;;;;5027355;28;20466;-63
2022/12/15 10:26:14;;;;;;;6.97;3.73;;;2.00;98.00;;;;;;5019341;28;20466;-63
2022/12/15 10:28:54;;;;;;;10.27;4.90;;;1.90;98.00;;;;;;5023890;28;20467;-63
2022/12/15 10:31:29;;;;;;;8.60;5.23;;;1.80;98.00;;;;;;5009507;28;20537;-63
2022/12/15 10:34:04;;;;;;;4.80;4.30;;;1.90;98.00;;;;;;5009827;28;20469;-64
2022/12/15 10:36:31;;;;;;;7.60;3.57;;;1.90;98.00;;;;;;5009209;28;20459;-64
2022/12/15 10:39:00;;;;;;;5.37;3.40;;;1.90;98.00;;;;;;5020311;28;20466;-64
2022/12/15 10:41:32;;;;;;;8.50;4.13;;;1.80;98.00;;;;;;5019543;28;20508;-63
2022/12/15 10:44:01;;;;;;;4.30;3.40;;;1.70;98.00;;;;;;5016865;28;20469;-63
2022/12/15 10:46:30;;;;;;;4.90;3.67;;;1.80;98.00;;;;;;5011182;28;20451;-62
2022/12/15 10:48:59;;;;;;;6.57;3.83;;;1.80;98.00;;;;;;5011055;28;20471;-63
2022/12/15 10:51:30;;;;;;;5.47;3.27;;;1.80;98.00;;;;;;5017468;28;20471;-62
2022/12/15 10:54:08;;;;;;;5.27;3.43;;;1.60;98.00;;;;;;5009320;28;20827;-62
2022/12/15 10:56:47;;;;;;;6.63;3.90;;;1.60;98.00;;;;;;5022789;28;20493;-64
2022/12/15 10:59:24;;;;;;;6.03;3.03;;;1.50;98.00;;;;;;5003150;28;20987;-63
2022/12/15 11:01:51;;;;;;;5.43;3.00;;;1.50;98.00;;;;;;5010247;28;20470;-63
2022/12/15 11:04:29;;;;;;;8.70;4.77;;;1.60;98.00;;;;;;5021083;28;20463;-62
2022/12/15 11:06:57;;;;;;;9.90;4.00;;;1.70;98.00;;;;;;5019289;28;20963;-63
2022/12/15 11:09:32;;;;;;;9.33;4.90;;;1.70;98.00;;;;;;5024324;28;20469;-62
2022/12/15 11:14:46;;;;;;;6.40;4.40;;;2.10;98.00;;;;;;5022422;28;20454;-62
2022/12/15 11:17:15;;;;;;;6.53;3.80;;;2.00;98.00;;;;;;5009609;28;20479;-62
2022/12/15 11:19:49;;;;;;;8.10;4.57;;;2.10;98.00;;;;;;5000950;28;21053;-62
2022/12/15 11:22:23;;;;;;;11.07;3.97;;;2.10;98.00;;;;;;5020214;28;20546;-63
2022/12/15 11:25:01;;;;;;;5.63;3.33;;;2.30;98.00;;;;;;5027285;28;20459;-62
2022/12/15 11:27:33;;;;;;;9.20;4.93;;;2.40;98.00;;;;;;5028141;28;20536;-62
2022/12/15 11:30:11;;;;;;;5.30;2.90;;;2.40;98.00;;;;;;4994643;28;20965;-62
2022/12/15 11:32:42;;;;;;;5.90;3.90;;;2.40;98.00;;;;;;5028461;28;20475;-63
2022/12/15 11:35:13;;;;;;;7.83;3.30;;;2.40;98.00;;;;;;5016759;28;20497;-62
2022/12/15 11:37:44;;;;;;;12.40;3.57;;;2.30;98.00;;;;;;5010098;28;20492;-63
2022/12/15 11:40:37;;;;;;;12.83;3.23;;;2.40;98.00;;;;;;5009506;28;20471;-62
2022/12/15 11:43:40;;;;;;;7.60;3.53;;;2.50;98.00;;;;;;5008786;28;20455;-63
2022/12/15 11:46:21;;;;;;;5.30;3.60;;;2.60;98.00;;;;;;5009899;28;20834;-63
2022/12/15 11:49:20;;;;;;;3.53;2.80;;;2.60;98.00;;;;;;5019343;28;20463;-62
2022/12/15 11:51:58;;;;;;;5.50;2.90;;;2.70;98.00;;;;;;5011394;28;20460;-62
2022/12/15 11:54:34;;;;;;;3.80;3.07;;;2.60;98.00;;;;;;5009714;28;20505;-63
2022/12/15 11:57:18;;;;;;;3.90;2.93;;;2.60;98.00;;;;;;5023387;28;20802;-63
2022/12/15 12:00:03;;;;;;;10.93;4.43;;;2.50;98.00;;;;;;5016140;28;20941;-63
2022/12/15 12:02:49;;;;;;;7.90;4.40;;;2.60;98.00;;;;;;5026527;28;20458;-62
2022/12/15 12:05:40;;;;;;;7.30;3.23;;;2.30;98.00;;;;;;5025648;28;20471;-62
2022/12/15 12:08:26;;;;;;;6.33;3.90;;;2.30;98.00;;;;;;5021927;28;20466;-63
2022/12/15 12:11:02;;;;;;;19.33;3.90;;;2.30;98.00;;;;;;5013486;28;20459;-62
2022/12/15 12:13:37;;;;;;;8.90;4.20;;;2.30;98.00;;;;;;5022031;28;20466;-62
2022/12/15 12:16:16;;;;;;;7.40;4.43;;;2.50;98.00;;;;;;5022251;28;20504;-63
2022/12/15 12:18:48;;;;;;;8.37;4.70;;;2.50;98.00;;;;;;5005600;28;20494;-63
2022/12/15 12:21:28;;;;;;;3.93;3.30;;;2.50;98.00;;;;;;5012836;28;20458;-63
2022/12/15 12:24:00;;;;;;;7.77;4.43;;;2.50;98.00;;;;;;4995883;28;20459;-62
2022/12/15 12:26:36;;;;;;;7.67;4.13;;;2.50;98.00;;;;;;5029458;28;20474;-61
2022/12/15 12:29:11;;;;;;;6.83;3.60;;;2.50;98.00;;;;;;5014615;28;20462;-62
2022/12/15 12:31:50;;;;;;;3.53;3.10;;;2.50;98.00;;;;;;5021528;28;20459;-63
2022/12/15 12:34:26;;;;;;;26.43;3.80;;;2.50;98.00;;;;;;5012834;28;20461;-63
2022/12/15 12:36:57;;;;;;;5.67;3.20;;;2.60;98.00;;;;;;5004062;28;20462;-63
2022/12/15 12:39:25;;;;;;;8.83;4.00;;;2.60;98.00;;;;;;5028647;28;20502;-63
2022/12/15 12:42:03;;;;;;;9.13;3.97;;;2.70;98.00;;;;;;5021882;28;20472;-63
2022/12/15 12:44:34;;;;;;;5.77;2.93;;;2.70;98.00;;;;;;5013558;28;20463;-63
2022/12/15 12:47:10;;;;;;;4.60;3.10;;;2.90;98.00;;;;;;5011843;28;20513;-63
2022/12/15 12:49:43;;;;;;;13.70;5.57;;;3.00;98.00;;;;;;5019851;28;20462;-62
2022/12/15 12:52:20;;;;;;;5.80;4.00;;;3.00;98.00;;;;;;4999683;28;20493;-62
2022/12/15 12:54:56;;;;;;;3.33;2.70;;;3.10;98.00;;;;;;5024271;28;20491;-62
2022/12/15 12:57:45;;;;;;;12.73;4.33;;;3.10;98.00;;;;;;5028211;28;20979;-62
2022/12/15 13:00:17;;;;;;;10.23;3.73;;;3.20;98.00;;;;;;5002576;28;20551;-62
2022/12/15 13:03:15;;;;;;;8.83;3.97;;;3.40;98.00;;;;;;5004301;28;20458;-62
2022/12/15 13:05:43;;;;;;;5.97;2.93;;;3.50;98.00;;;;;;5024607;28;20454;-63
2022/12/15 13:08:41;;;;;;;12.17;5.23;;;3.80;98.00;;;;;;5025502;28;20451;-62
2022/12/15 13:11:55;;;;;;;8.50;3.90;;;3.70;98.00;;;;;;5012234;28;20463;-63
2022/12/15 13:14:29;;;;;;;8.70;5.03;;;3.80;98.00;;;;;;5013877;28;20963;-62
2022/12/15 13:17:06;;;;;;;3.20;2.37;;;3.60;98.00;;;;;;5015010;28;20468;-62
2022/12/15 13:20:17;;;;;;;8.73;4.40;;;3.40;98.00;;;;;;5028613;28;20505;-62
2022/12/15 13:22:44;;;;;;;3.80;2.83;;;3.40;98.00;;;;;;5008065;28;20607;-63
2022/12/15 13:25:45;;;;;;;5.53;3.30;;;3.20;98.00;;;;;;5020579;28;20463;-63
2022/12/15 13:28:25;;;;;;;10.53;4.23;;;3.00;98.00;;;;;;4960296;28;20504;-62
2022/12/15 13:31:37;;;;;;;7.77;3.90;;;3.00;98.00;;;;;;5020138;28;20461;-62
2022/12/15 13:34:26;;;;;;;4.67;3.93;;;2.90;98.00;;;;;;4975690;28;20476;-62
2022/12/15 13:36:54;;;;;;;3.93;2.80;;;2.80;98.00;;;;;;5008654;28;20876;-63
2022/12/15 13:39:58;;;;;;;8.80;4.10;;;2.70;98.00;;;;;;5019374;28;21059;-63
2022/12/15 13:42:34;;;;;;;7.87;2.97;;;2.60;98.00;;;;;;5016197;28;21015;-62
2022/12/15 13:45:31;;;;;;;4.57;3.40;;;2.50;98.00;;;;;;5019210;28;20466;-63
2022/12/15 13:48:01;;;;;;;6.70;3.80;;;2.60;98.00;;;;;;5022522;28;20882;-62
2022/12/15 13:50:39;;;;;;;7.47;3.47;;;2.60;98.00;;;;;;5012831;28;20459;-62
2022/12/15 13:53:21;;;;;;;7.97;4.03;;;2.60;98.00;;;;;;5012513;28;20486;-62
2022/12/15 13:56:05;;;;;;;3.93;3.13;;;2.50;98.00;;;;;;5012638;28;20455;-63
2022/12/15 13:58:43;;;;;;;9.90;3.53;;;2.50;98.00;;;;;;5012185;28;20490;-63
2022/12/15 14:01:22;;;;;;;9.90;4.50;;;2.30;98.00;;;;;;5012821;28;20462;-63
2022/12/15 14:04:14;;;;;;;6.10;3.10;;;2.40;98.00;;;;;;5012783;28;20881;-63
2022/12/15 14:06:47;;;;;;;6.80;4.10;;;2.50;98.00;;;;;;4998194;28;20867;-62
2022/12/15 14:09:18;;;;;;;4.00;3.00;;;2.50;98.00;;;;;;5012521;28;20454;-63
2022/12/15 14:11:47;;;;;;;9.03;4.37;;;2.50;98.00;;;;;;5012318;28;20469;-63
2022/12/15 14:14:21;;;;;;;5.00;2.80;;;2.50;98.00;;;;;;5011984;28;20467;-62
2022/12/15 14:16:53;;;;;;;5.90;3.47;;;2.60;98.00;;;;;;5012393;28;20466;-63
2022/12/15 14:19:20;;;;;;;8.47;4.90;;;2.50;98.00;;;;;;5012091;28;20489;-63
2022/12/15 14:21:54;;;;;;;7.83;3.17;;;2.50;98.00;;;;;;4994744;28;20467;-63
2022/12/15 14:24:24;;;;;;;8.73;5.00;;;2.50;98.00;;;;;;5012205;28;20528;-63
2022/12/15 14:26:52;;;;;;;6.90;2.50;;;2.40;98.00;;;;;;5012050;28;20474;-63
2022/12/15 14:29:19;;;;;;;5.43;3.73;;;2.40;98.00;;;;;;5012091;28;20851;-63
2022/12/15 14:31:50;;;;;;;8.10;4.30;;;2.40;98.00;;;;;;5011910;28;20466;-62
2022/12/15 14:34:27;;;;;;;9.10;3.20;;;2.40;98.00;;;;;;5012039;28;20956;-63
2022/12/15 14:36:59;;;;;;;11.37;4.17;;;2.30;98.00;;;;;;5012016;28;20479;-63
2022/12/15 14:39:33;;;;;;;4.33;2.73;;;2.20;98.00;;;;;;5011846;28;20505;-62
2022/12/15 14:42:01;;;;;;;4.20;2.53;;;2.10;98.00;;;;;;5012012;28;20459;-62
2022/12/15 14:44:35;;;;;;;11.67;4.13;;;2.00;98.00;;;;;;5011826;28;20467;-62
2022/12/15 14:47:05;;;;;;;4.20;3.43;;;2.00;98.00;;;;;;5011849;28;20459;-63
2022/12/15 14:49:40;;;;;;;4.80;3.80;;;2.00;98.00;;;;;;4994520;28;20954;-63
2022/12/15 14:52:27;;;;;;;4.03;3.20;;;2.00;98.00;;;;;;5012006;28;20545;-62
2022/12/15 14:54:56;;;;;;;11.00;4.43;;;1.90;98.00;;;;;;5011724;28;20468;-62
2022/12/15 14:57:28;;;;;;;5.97;3.47;;;1.80;98.00;;;;;;5011675;28;20874;-62
2022/12/15 14:59:55;;;;;;;11.20;3.83;;;1.70;98.00;;;;;;5011592;28;20820;-62
2022/12/15 15:02:27;;;;;;;5.33;2.77;;;1.80;98.00;;;;;;4994077;28;20463;-63
2022/12/15 15:05:01;;;;;;;3.47;2.37;;;2.00;98.00;;;;;;5011567;28;20460;-63
2022/12/15 15:07:32;;;;;;;5.00;2.87;;;2.00;98.00;;;;;;5011456;28;20510;-62
2022/12/15 15:10:00;;;;;;;8.30;3.63;;;2.00;98.00;;;;;;5011580;28;20854;-62
2022/12/15 15:12:41;;;;;;;3.23;2.97;;;1.90;98.00;;;;;;5011354;28;20469;-63
2022/12/15 15:15:14;;;;;;;5.17;2.60;;;1.90;98.00;;;;;;5011685;28;20503;-62
2022/12/15 15:17:50;;;;;;;5.77;3.97;;;1.90;98.00;;;;;;5011346;28;20459;-63
2022/12/15 15:20:19;;;;;;;3.97;2.87;;;2.00;98.00;;;;;;5011339;28;20466;-63
2022/12/15 15:23:04;;;;;;;4.03;3.00;;;2.00;98.00;;;;;;5011400;28;20482;-62
2022/12/15 15:25:37;;;;;;;4.17;2.90;;;2.10;98.00;;;;;;5012614;28;20459;-62
2022/12/15 15:28:15;;;;;;;12.50;3.87;;;2.10;98.00;;;;;;5015194;28;20843;-62
2022/12/15 15:30:44;;;;;;;5.70;3.07;;;2.00;98.00;;;;;;5015011;28;20855;-63
2022/12/15 15:33:12;;;;;;;5.17;3.00;;;1.90;98.00;;;;;;5014898;28;20509;-62
2022/12/15 15:35:40;;;;;;;7.03;4.00;;;1.90;98.00;;;;;;4997462;28;20463;-62
2022/12/15 15:38:16;;;;;;;6.77;3.30;;;1.80;98.00;;;;;;5014677;28;20462;-63
2022/12/15 15:40:48;;;;;;;4.00;2.90;;;1.90;98.00;;;;;;5015050;28;20520;-63
2022/12/15 15:43:16;;;;;;;2.90;2.63;;;1.90;98.00;;;;;;5015006;28;20467;-63
2022/12/15 15:45:44;;;;;;;8.07;3.20;;;2.00;98.00;;;;;;5014770;28;20463;-62
2022/12/15 15:48:16;;;;;;;3.43;3.10;;;2.00;98.00;;;;;;5015016;28;20933;-62
2022/12/15 15:50:46;;;;;;;4.73;2.67;;;1.90;98.00;;;;;;5015542;28;20470;-63